JLY7974 SBEG-SBKP
Flight info
| Callsign | JLY7974 |
|---|---|
| Flight time | N/A |
| Altitude | 35000 |
| Route | ETAXA UZ87 DINAD/N0461F370 UZ87 PALCA UM411 UTLOT |
| Aircraft | B738/M-SDE2E3FGHIRWXY/LB1 |
Departure
| Time | N/A |
|---|---|
| Airport | Eduardo Gomes International Airport (SBEG) |
Arrival
| Time | 2026-05-08 00:43 |
|---|---|
| Airport | Viracopos International Airport (SBKP) |
| Time | Latitude | Longitude | Altitude | Speed | Heading |
|---|---|---|---|---|---|
| 2026-05-08 00:01 | -20.08827 | -50.29842 | 36942 ft | 467 kts | 154° |
| 2026-05-08 00:01 | -20.11598 | -50.28044 | 36941 ft | 466 kts | 154° |
| 2026-05-08 00:01 | -20.17215 | -50.24626 | 36943 ft | 464 kts | 157° |
| 2026-05-08 00:02 | -20.22869 | -50.21334 | 36946 ft | 464 kts | 157° |
| 2026-05-08 00:02 | -20.28526 | -50.18020 | 36950 ft | 464 kts | 157° |
| 2026-05-08 00:03 | -20.34180 | -50.14675 | 36947 ft | 465 kts | 156° |
| 2026-05-08 00:03 | -20.39786 | -50.11341 | 36948 ft | 465 kts | 156° |
| 2026-05-08 00:04 | -20.45431 | -50.07980 | 36948 ft | 464 kts | 156° |
| 2026-05-08 00:04 | -20.51080 | -50.04615 | 36950 ft | 465 kts | 156° |
| 2026-05-08 00:05 | -20.56729 | -50.01248 | 36949 ft | 465 kts | 156° |
| 2026-05-08 00:05 | -20.62358 | -49.97889 | 36944 ft | 465 kts | 156° |
| 2026-05-08 00:06 | -20.68003 | -49.94518 | 36948 ft | 465 kts | 156° |
| 2026-05-08 00:06 | -20.73646 | -49.91146 | 36955 ft | 464 kts | 156° |
| 2026-05-08 00:07 | -20.79289 | -49.87770 | 36948 ft | 465 kts | 156° |
| 2026-05-08 00:07 | -20.84924 | -49.84397 | 36952 ft | 464 kts | 156° |
| 2026-05-08 00:08 | -20.90557 | -49.81022 | 36962 ft | 464 kts | 156° |
| 2026-05-08 00:08 | -20.96187 | -49.77645 | 36945 ft | 464 kts | 156° |
| 2026-05-08 00:09 | -21.01775 | -49.74291 | 36942 ft | 463 kts | 156° |
| 2026-05-08 00:09 | -21.07431 | -49.70893 | 36950 ft | 463 kts | 156° |
| 2026-05-08 00:10 | -21.13011 | -49.67538 | 36949 ft | 462 kts | 156° |
| 2026-05-08 00:10 | -21.18621 | -49.64162 | 36946 ft | 462 kts | 156° |
| 2026-05-08 00:11 | -21.24226 | -49.60786 | 36944 ft | 462 kts | 156° |
| 2026-05-08 00:11 | -21.29829 | -49.57408 | 36944 ft | 462 kts | 156° |
| 2026-05-08 00:12 | -21.35427 | -49.54030 | 36953 ft | 462 kts | 156° |
| 2026-05-08 00:12 | -21.41030 | -49.50647 | 36949 ft | 462 kts | 156° |
| 2026-05-08 00:13 | -21.46630 | -49.47262 | 36944 ft | 462 kts | 156° |
| 2026-05-08 00:13 | -21.52231 | -49.43873 | 36946 ft | 462 kts | 156° |
| 2026-05-08 00:14 | -21.57835 | -49.40480 | 36953 ft | 463 kts | 156° |
| 2026-05-08 00:14 | -21.63445 | -49.37079 | 36952 ft | 463 kts | 156° |
| 2026-05-08 00:15 | -21.69056 | -49.33676 | 36953 ft | 463 kts | 156° |
| 2026-05-08 00:15 | -21.74675 | -49.30264 | 36954 ft | 464 kts | 156° |
| 2026-05-08 00:16 | -21.80294 | -49.26849 | 36956 ft | 464 kts | 156° |
| 2026-05-08 00:16 | -21.85924 | -49.23424 | 36955 ft | 465 kts | 156° |
| 2026-05-08 00:17 | -21.91553 | -49.19996 | 36950 ft | 465 kts | 156° |
| 2026-05-08 00:17 | -21.97183 | -49.16564 | 36955 ft | 465 kts | 156° |
| 2026-05-08 00:18 | -22.02812 | -49.13130 | 36958 ft | 465 kts | 156° |
| 2026-05-08 00:18 | -22.08244 | -49.09314 | 36961 ft | 476 kts | 140° |
| 2026-05-08 00:19 | -22.10362 | -49.06534 | 36981 ft | 485 kts | 127° |
| 2026-05-08 00:19 | -22.11843 | -49.03237 | 36980 ft | 494 kts | 112° |
| 2026-05-08 00:19 | -22.13903 | -48.96158 | 36977 ft | 494 kts | 112° |
| 2026-05-08 00:20 | -22.15702 | -48.90312 | 36974 ft | 493 kts | 113° |
| 2026-05-08 00:20 | -22.17930 | -48.83320 | 36970 ft | 493 kts | 113° |
| 2026-05-08 00:21 | -22.20524 | -48.75175 | 36488 ft | 499 kts | 112° |
| 2026-05-08 00:21 | -22.21644 | -48.71634 | 35960 ft | 497 kts | 112° |
| 2026-05-08 00:21 | -22.22757 | -48.68107 | 35340 ft | 497 kts | 112° |
| 2026-05-08 00:22 | -22.23868 | -48.64582 | 34713 ft | 497 kts | 111° |
| 2026-05-08 00:22 | -22.24983 | -48.61044 | 34090 ft | 497 kts | 111° |
| 2026-05-08 00:22 | -22.26096 | -48.57511 | 33491 ft | 495 kts | 111° |
| 2026-05-08 00:22 | -22.26823 | -48.55200 | 33213 ft | 490 kts | 111° |
| 2026-05-08 00:23 | -22.27922 | -48.51700 | 32478 ft | 492 kts | 111° |
| 2026-05-08 00:23 | -22.29028 | -48.48177 | 31989 ft | 487 kts | 111° |
| 2026-05-08 00:23 | -22.30110 | -48.44726 | 31489 ft | 483 kts | 110° |
| 2026-05-08 00:23 | -22.31168 | -48.41348 | 31012 ft | 479 kts | 110° |
| 2026-05-08 00:24 | -22.32244 | -48.37911 | 30530 ft | 475 kts | 110° |
| 2026-05-08 00:24 | -22.33297 | -48.34543 | 30050 ft | 471 kts | 110° |
| 2026-05-08 00:24 | -22.34341 | -48.31205 | 29493 ft | 467 kts | 110° |
| 2026-05-08 00:24 | -22.35376 | -48.27891 | 28961 ft | 463 kts | 110° |
| 2026-05-08 00:25 | -22.36401 | -48.24608 | 28454 ft | 459 kts | 110° |
| 2026-05-08 00:25 | -22.37400 | -48.21404 | 27972 ft | 454 kts | 110° |
| 2026-05-08 00:25 | -22.38404 | -48.18181 | 27490 ft | 450 kts | 110° |
| 2026-05-08 00:25 | -22.39400 | -48.14985 | 27002 ft | 446 kts | 110° |
| 2026-05-08 00:26 | -22.40384 | -48.11822 | 26539 ft | 443 kts | 110° |
| 2026-05-08 00:26 | -22.41361 | -48.08680 | 26071 ft | 439 kts | 109° |
| 2026-05-08 00:26 | -22.42330 | -48.05560 | 25595 ft | 436 kts | 109° |
| 2026-05-08 00:26 | -22.43293 | -48.02457 | 25115 ft | 434 kts | 109° |
| 2026-05-08 00:27 | -22.44251 | -47.99372 | 24645 ft | 432 kts | 109° |
| 2026-05-08 00:27 | -22.45203 | -47.96299 | 24170 ft | 430 kts | 109° |
| 2026-05-08 00:27 | -22.46152 | -47.93238 | 23698 ft | 428 kts | 109° |
| 2026-05-08 00:27 | -22.47200 | -47.90233 | 23144 ft | 426 kts | 116° |
| 2026-05-08 00:28 | -22.48648 | -47.87461 | 22657 ft | 421 kts | 126° |
| 2026-05-08 00:28 | -22.50441 | -47.84982 | 22203 ft | 416 kts | 130° |
| 2026-05-08 00:28 | -22.52286 | -47.82580 | 21732 ft | 413 kts | 130° |
| 2026-05-08 00:28 | -22.54119 | -47.80203 | 21266 ft | 410 kts | 130° |
| 2026-05-08 00:29 | -22.55931 | -47.77838 | 20817 ft | 407 kts | 129° |
| 2026-05-08 00:29 | -22.57726 | -47.75474 | 20355 ft | 405 kts | 129° |
| 2026-05-08 00:29 | -22.59499 | -47.73124 | 19881 ft | 403 kts | 128° |
| 2026-05-08 00:29 | -22.61265 | -47.70774 | 19429 ft | 401 kts | 128° |
| 2026-05-08 00:30 | -22.62995 | -47.68469 | 18971 ft | 399 kts | 128° |
| 2026-05-08 00:30 | -22.64743 | -47.66138 | 18516 ft | 398 kts | 128° |
| 2026-05-08 00:30 | -22.66484 | -47.63816 | 18031 ft | 396 kts | 127° |
| 2026-05-08 00:30 | -22.68217 | -47.61504 | 17554 ft | 394 kts | 127° |
| 2026-05-08 00:31 | -22.69944 | -47.59220 | 17098 ft | 391 kts | 129° |
| 2026-05-08 00:31 | -22.71891 | -47.57181 | 16680 ft | 388 kts | 140° |
| 2026-05-08 00:31 | -22.74009 | -47.55392 | 16313 ft | 384 kts | 141° |
| 2026-05-08 00:31 | -22.76128 | -47.53645 | 15931 ft | 380 kts | 142° |
| 2026-05-08 00:32 | -22.78229 | -47.51911 | 15558 ft | 377 kts | 141° |
| 2026-05-08 00:32 | -22.80278 | -47.50207 | 15192 ft | 376 kts | 141° |
| 2026-05-08 00:32 | -22.82340 | -47.48480 | 14830 ft | 374 kts | 141° |
| 2026-05-08 00:32 | -22.84391 | -47.46752 | 14449 ft | 373 kts | 141° |
| 2026-05-08 00:33 | -22.86437 | -47.45024 | 14074 ft | 372 kts | 141° |
| 2026-05-08 00:33 | -22.88473 | -47.43303 | 13700 ft | 371 kts | 141° |
| 2026-05-08 00:33 | -22.90505 | -47.41583 | 13300 ft | 369 kts | 141° |
| 2026-05-08 00:33 | -22.92521 | -47.39876 | 12939 ft | 366 kts | 141° |
| 2026-05-08 00:34 | -22.94522 | -47.38182 | 12564 ft | 364 kts | 141° |
| 2026-05-08 00:34 | -22.96498 | -47.36508 | 12205 ft | 363 kts | 140° |
| 2026-05-08 00:34 | -22.98351 | -47.34670 | 11799 ft | 360 kts | 129° |
| 2026-05-08 00:34 | -22.99894 | -47.32547 | 11395 ft | 357 kts | 125° |
| 2026-05-08 00:35 | -23.01386 | -47.30391 | 10972 ft | 357 kts | 125° |
| 2026-05-08 00:35 | -23.02880 | -47.28243 | 10559 ft | 356 kts | 125° |
| 2026-05-08 00:35 | -23.04390 | -47.26106 | 10132 ft | 356 kts | 126° |
| 2026-05-08 00:35 | -23.05897 | -47.23997 | 9949 ft | 348 kts | 126° |
| 2026-05-08 00:36 | -23.07355 | -47.21966 | 9924 ft | 334 kts | 126° |
| 2026-05-08 00:36 | -23.08757 | -47.20013 | 9824 ft | 320 kts | 126° |
| 2026-05-08 00:36 | -23.10091 | -47.18154 | 9681 ft | 305 kts | 126° |
| 2026-05-08 00:36 | -23.11382 | -47.16352 | 9335 ft | 300 kts | 126° |
| 2026-05-08 00:37 | -23.12656 | -47.14573 | 8906 ft | 298 kts | 126° |
| 2026-05-08 00:37 | -23.13913 | -47.12817 | 8394 ft | 291 kts | 126° |
| 2026-05-08 00:37 | -23.15128 | -47.11112 | 7754 ft | 287 kts | 123° |
| 2026-05-08 00:38 | -23.15807 | -47.07225 | 6716 ft | 255 kts | 68° |
| 2026-05-08 00:38 | -23.15087 | -47.05541 | 6310 ft | 238 kts | 50° |
| 2026-05-08 00:38 | -23.13979 | -47.04290 | 6003 ft | 222 kts | 34° |
| 2026-05-08 00:38 | -23.12821 | -47.03300 | 5916 ft | 202 kts | 33° |
| 2026-05-08 00:39 | -23.11749 | -47.02388 | 5649 ft | 191 kts | 33° |
| 2026-05-08 00:39 | -23.10643 | -47.01796 | 5451 ft | 171 kts | 4° |
| 2026-05-08 00:39 | -23.09491 | -47.01984 | 4930 ft | 176 kts | 333° |
| 2026-05-08 00:39 | -23.08541 | -47.02882 | 4433 ft | 181 kts | 317° |
| 2026-05-08 00:40 | -23.07693 | -47.03853 | 4140 ft | 172 kts | 317° |
| 2026-05-08 00:40 | -23.06937 | -47.04811 | 3925 ft | 160 kts | 314° |
| 2026-05-08 00:40 | -23.06287 | -47.05710 | 3756 ft | 149 kts | 314° |
| 2026-05-08 00:40 | -23.05651 | -47.06595 | 3551 ft | 149 kts | 313° |
| 2026-05-08 00:41 | -23.05010 | -47.07488 | 3333 ft | 151 kts | 312° |
| 2026-05-08 00:41 | -23.04358 | -47.08397 | 3133 ft | 154 kts | 310° |
| 2026-05-08 00:41 | -23.03700 | -47.09317 | 2913 ft | 153 kts | 310° |
| 2026-05-08 00:41 | -23.03063 | -47.10208 | 2702 ft | 146 kts | 310° |
| 2026-05-08 00:42 | -23.02438 | -47.11078 | 2511 ft | 147 kts | 310° |
| 2026-05-08 00:42 | -23.01818 | -47.11950 | 2306 ft | 147 kts | 309° |
| 2026-05-08 00:42 | -23.01213 | -47.12785 | 2165 ft | 130 kts | 308° |
| 2026-05-08 00:42 | -23.00736 | -47.13457 | 2152 ft | 95 kts | 308° |
| 2026-05-08 00:43 | -23.00449 | -47.13859 | 2152 ft | 38 kts | 308° |
| 2026-05-08 00:43 | -23.00294 | -47.14072 | 2151 ft | 34 kts | 307° |
| 2026-05-08 00:43 | -23.00152 | -47.14270 | 2147 ft | 33 kts | 308° |
| 2026-05-08 00:43 | -23.00016 | -47.14460 | 2144 ft | 31 kts | 308° |
| 2026-05-08 00:44 | -22.99962 | -47.14573 | 2143 ft | 14 kts | 273° |
| 2026-05-08 00:44 | -23.00001 | -47.14666 | 2144 ft | 14 kts | 222° |
| 2026-05-08 00:44 | -23.00074 | -47.14728 | 2144 ft | 13 kts | 208° |
| 2026-05-08 00:44 | -23.00155 | -47.14771 | 2144 ft | 13 kts | 203° |
| 2026-05-08 00:45 | -23.00227 | -47.14824 | 2145 ft | 12 kts | 218° |
| 2026-05-08 00:45 | -23.00289 | -47.14876 | 2144 ft | 9 kts | 217° |
| 2026-05-08 00:45 | -23.00333 | -47.14910 | 2145 ft | 3 kts | 216° |
| 2026-05-08 00:45 | -23.00348 | -47.14922 | 2143 ft | 2 kts | 216° |
| 2026-05-08 00:46 | -23.00353 | -47.14926 | 2142 ft | 0 kts | 217° |